x

North Channel East (45154) Wave Buoy

12:00pm - Mon 25th Jul 2016 All times are CDT. -5 hours from GMT.

  • Sig Wave height 2.3ft
  • Peak Period 4s
  • Wind
    18mph, 22mph gusts
  • Sea Temp 69°f
  • Air Temp 71°f
  • Sea Pressure 1010mb
  • North Channel East
  • North Channel East

More Historic Weather Station data

Upgrade to MSW Pro to gain access to the past 30 days of data for over 8000 Wavebouys and Weather Stations around the globe.

Join Pro

Comparision Forecast

View Surf forecast
   
Mon 07/25 12:00pm 2.5ft 4s 18 22 mph 1010mb 69f 71f
11:00am 2ft 4s 13 18 mph 1009.8mb 69f 70f
10:00am 1.6ft 4s 16 18 mph 1009.7mb 68f 69f
9:00am 1.6ft 3s 13 16 mph 1009.5mb 68f 69f
8:00am 1.6ft 3s 16 18 mph 1009.4mb 68f 68f
7:00am 1.6ft 3s 18 20 mph 1008.8mb 68f 69f
6:00am 1ft 3s 16 18 mph 1008.6mb 68f 69f
5:00am 1ft 2s 11 16 mph 1008.4mb 68f 68f
4:00am 0.7ft 2s 13
mph
1008.1mb 68f 68f
3:00am 0.3ft 2s 9 11 mph 1008mb 68f 69f
2:00am 0.3ft 2s 7
mph
1007.8mb 68f 69f
1:00am 0.7ft 2s 7 9 mph 1007.3mb 68f 69f
12:00am 0.7ft 2s 9 11 mph 1007.6mb 68f 70f
Sun 07/24 11:00pm 0.3ft 2s 13 16 mph 1007.6mb 68f 71f
10:00pm 0.3ft 2s 4 7 mph 1008.1mb 68f 70f
9:00pm 0.3ft 2s 4 7 mph 1008.5mb 68f 70f
8:00pm 0.7ft 2s 4 7 mph 1008.5mb 68f 71f
7:00pm 0.7ft 2s 7
mph
1008.9mb 68f 70f
6:00pm 0.7ft 2s 9
mph
1009.4mb 68f 70f
5:00pm 1ft 3s 4 7 mph 1009.7mb 68f 71f
4:00pm 1.3ft 3s 13 16 mph 1009.6mb 68f 71f
3:00pm 1.3ft 3s 13 16 mph 1010mb 68f 71f
2:00pm 1.3ft 3s 16 20 mph 1010.3mb 68f 72f
1:00pm 0.7ft 2s 18 20 mph 1011.3mb 68f 73f
12:00pm 1ft 3s 9 11 mph 1011.8mb 69f 71f
11:00am 1.3ft 2s 13 18 mph 1012.1mb 69f 69f
10:00am 1.3ft 2s 16 18 mph 1012.3mb 69f 68f
9:00am 0.7ft 2s 13 18 mph 1013.3mb 70f 70f
8:00am 0.7ft 2s 7 9 mph 1014mb 70f 72f
7:00am 0.7ft 2s 11 13 mph 1013.7mb 70f 70f
6:00am 0.3ft 2s 9 13 mph 1014mb 70f 71f
5:00am 0.3ft 2s 9
mph
1014.1mb 70f 71f
4:00am 0.3ft 2s 9 13 mph 1014mb 70f 72f
3:00am 0.3ft 2s 4 7 mph 1014.5mb 70f 71f
2:00am 0.3ft 2s 4
mph
1014.6mb 70f 71f
1:00am 0.3ft 3s 2 7 mph 1014.8mb 70f 71f
12:00am  -  2s 7 9 mph 1014.6mb 70f 71f
Sat 07/23 11:00pm  -  2s 7 9 mph 1014.5mb 70f 72f
10:00pm  -  2s 4
mph
1014.3mb 70f 71f
9:00pm  -  2s 2
mph
1014.3mb 70f 73f
8:00pm 0.3ft 2s 7
mph
1014.3mb 70f 74f
7:00pm 0.3ft 2s 7
mph
1013.8mb 71f 75f
6:00pm 0.3ft 2s 7
mph
1013.9mb 71f 74f
5:00pm 0.3ft 2s 2
mph
1013.9mb 71f 75f
4:00pm 0.3ft 2s 7
mph
1014.3mb 71f 73f
3:00pm 0.7ft 3s 7 9 mph 1015.1mb 70f 73f
2:00pm 0.7ft 2s 7 9 mph 1015.1mb 70f 72f
1:00pm 0.7ft 3s 4
mph
1014.8mb 70f 71f
12:00pm 0.7ft 3s 9
mph
1014.8mb 69f 69f
11:00am 0.7ft 3s 9
mph
1014.9mb 69f 69f
10:00am 0.7ft 3s 9
mph
1014.7mb 69f 68f
9:00am 0.7ft 3s 7 9 mph 1014.6mb 69f 67f
8:00am 1ft 3s 9 11 mph 1014.7mb 68f 67f
7:00am 1ft 3s 11 13 mph 1013.9mb 68f 67f
6:00am 1ft 3s 11 13 mph 1013.4mb 68f 67f
5:00am 1.3ft 3s 9 13 mph 1012.7mb 68f 67f
4:00am 1.3ft 3s 13 16 mph 1012.5mb 68f 67f
3:00am 1.3ft 3s 13 16 mph 1012.8mb 68f 68f
2:00am 1.3ft 3s 13 18 mph 1012.5mb 68f 68f
1:00am 1.3ft 3s 13
mph
1012.1mb 68f 69f
12:00am 1.6ft 4s 13
mph
1011.7mb 68f 69f
Fri 07/22 11:00pm 1.6ft 4s 13 16 mph 1011.6mb 68f 70f
10:00pm 1.6ft 3s 16 18 mph 1011.5mb 68f 70f
9:00pm 1.6ft 4s 13 16 mph 1011.5mb 69f 70f
8:00pm 1.6ft 4s 16 20 mph 1011.1mb 69f 74f
7:00pm 2ft 4s 13 18 mph 1010.7mb 69f 74f
6:00pm 2.5ft 4s 16 18 mph 1010.5mb 69f 72f
5:00pm 2.5ft 4s 18 20 mph 1010.4mb 69f 74f
4:00pm 3ft 4s 20 22 mph 1010.5mb 69f 74f
3:00pm 2.5ft 4s 20 27 mph 1010.4mb 69f 73f
2:00pm 2ft 4s 20 25 mph 1010.7mb 69f 73f
1:00pm 2ft 3s 16 18 mph 1010.8mb 68f 72f
12:00pm 1.6ft 3s 16 20 mph 1011.4mb 68f 70f
11:00am 1.6ft 3s 18 20 mph 1011.4mb 68f 69f
10:00am 1.6ft 3s 16 18 mph 1011mb 68f 68f
9:00am 1.6ft 3s 16 20 mph 1010.7mb 68f 67f
8:00am 1.3ft 3s 18 20 mph 1010.7mb 68f 67f
7:00am 1.3ft 3s 16 18 mph 1010.6mb 68f 67f
6:00am 1.3ft 3s 13 16 mph 1010.3mb 68f 66f
5:00am 1ft 3s 16 18 mph 1009.7mb 67f 66f
4:00am 1.3ft 3s 11 13 mph 1009.5mb 67f 68f
3:00am 1.3ft 3s 13 16 mph 1009.4mb 68f 69f
2:00am 1ft 3s 13 16 mph 1009.3mb 68f 68f
1:00am 1ft 3s 11 13 mph 1009mb 68f 68f
12:00am 1ft 3s 13
mph
1009.7mb 68f 69f
Thu 07/21 11:00pm 1.3ft 4s 9
mph
1009.8mb 67f 69f
10:00pm 2ft 4s 11 13 mph 1009.9mb 67f 69f
9:00pm 1.6ft 4s 11 13 mph 1009.4mb 67f 70f
8:00pm 1.3ft 3s 16 18 mph 1009mb 67f 71f
7:00pm 1ft 3s 11 13 mph 1008.8mb 67f 73f